createdAt,value
2017-09-09T00:00:06.094Z,50.7
2017-09-09T00:01:07.585Z,50.8
2017-09-09T00:02:09.377Z,51
2017-09-09T00:03:10.839Z,50.8
2017-09-09T00:04:12.277Z,51.4
2017-09-09T00:05:14.406Z,51
2017-09-09T00:06:16.536Z,50.8
2017-09-09T00:07:18.356Z,51
2017-09-09T00:08:20.469Z,50.9
2017-09-09T00:09:22.599Z,51.3
2017-09-09T00:10:24.390Z,51.3
2017-09-09T00:11:26.182Z,51.3
2017-09-09T00:12:27.642Z,51.3
2017-09-09T00:13:29.435Z,51.1
2017-09-09T00:14:31.228Z,51.3
2017-09-09T00:15:32.326Z,50.9
2017-09-09T00:16:34.455Z,51.2
2017-09-09T00:17:35.892Z,51.3
2017-09-09T00:18:37.016Z,51.3
2017-09-09T00:19:39.147Z,50.9
2017-09-09T00:20:40.940Z,51.3
2017-09-09T00:21:42.734Z,50.9
2017-09-09T00:22:44.190Z,50.8
2017-09-09T00:23:45.652Z,51.3
2017-09-09T00:24:47.792Z,50.8
2017-09-09T00:25:49.269Z,50.9
2017-09-09T00:26:51.050Z,50.9
2017-09-09T00:27:52.514Z,50.9
2017-09-09T00:28:53.974Z,50.8
2017-09-09T00:29:55.781Z,51.4
2017-09-09T00:30:57.556Z,50.8
2017-09-09T00:31:59.686Z,50.9
2017-09-09T00:33:01.818Z,50.8
2017-09-09T00:34:03.293Z,51.4
2017-09-09T00:35:04.753Z,51.1
2017-09-09T00:36:06.551Z,50.8
2017-09-09T00:37:08.324Z,50.9
2017-09-09T00:38:10.121Z,51
2017-09-09T00:39:11.925Z,50.8
2017-09-09T00:40:13.366Z,50.8
2017-09-09T00:41:15.159Z,50.9
2017-09-09T00:42:16.593Z,50.8
2017-09-09T00:43:18.391Z,51.1
2017-09-09T00:44:19.825Z,51
2017-09-09T00:45:21.618Z,50.8
2017-09-09T00:46:22.724Z,51.1
2017-09-09T00:47:24.161Z,51
2017-09-09T00:48:25.619Z,51
2017-09-09T00:49:27.390Z,50.9
2017-09-09T00:50:29.528Z,51.1
2017-09-09T00:51:31.312Z,51.3
2017-09-09T00:52:32.415Z,51
2017-09-09T00:53:33.873Z,51.3
2017-09-09T00:54:35.336Z,51.3
2017-09-09T00:55:36.807Z,51.1
2017-09-09T00:56:37.895Z,51.2
2017-09-09T00:57:39.021Z,51
2017-09-09T00:58:40.813Z,51.6
2017-09-09T00:59:42.609Z,51.6
2017-09-09T01:00:44.738Z,51.4
2017-09-09T01:01:46.176Z,51.2
2017-09-09T01:02:47.614Z,51.2
2017-09-09T01:03:49.070Z,51.6
2017-09-09T01:04:50.863Z,51.2
2017-09-09T01:05:52.636Z,51.1
2017-09-09T01:06:53.762Z,51.2
2017-09-09T01:07:55.891Z,51.2
2017-09-09T01:08:58.018Z,51.2
2017-09-09T01:09:59.810Z,51.2
2017-09-09T01:11:01.606Z,51.1
2017-09-09T01:12:03.733Z,51.1
2017-09-09T01:13:05.862Z,51.4
2017-09-09T01:14:07.993Z,51
2017-09-09T01:15:10.122Z,51.2
2017-09-09T01:16:12.250Z,51.2
2017-09-09T01:17:14.377Z,51.2
2017-09-09T01:18:16.170Z,51.4
2017-09-09T01:19:17.631Z,51.3
2017-09-09T01:20:19.425Z,51.4
2017-09-09T01:21:20.863Z,51.6
2017-09-09T01:22:21.629Z,51.3
2017-09-09T01:23:23.112Z,51.4
2017-09-09T01:24:24.571Z,51.4
2017-09-09T01:25:26.700Z,51.4
2017-09-09T01:26:28.495Z,51.4
2017-09-09T01:27:30.624Z,51.8
2017-09-09T01:28:32.418Z,51.4
2017-09-09T01:29:33.523Z,51.3
2017-09-09T01:30:35.657Z,51.3
2017-09-09T01:31:37.429Z,51.3
2017-09-09T01:32:39.203Z,51.5
2017-09-09T01:33:41.336Z,51.4
2017-09-09T01:34:43.152Z,51.4
2017-09-09T01:35:45.302Z,51.7
2017-09-09T01:36:47.430Z,51.7
2017-09-09T01:37:48.870Z,51.5
2017-09-09T01:38:50.643Z,51.8
2017-09-09T01:39:52.437Z,51.9
2017-09-09T01:40:54.220Z,51.4
2017-09-09T01:41:56.348Z,51.4
2017-09-09T01:42:57.809Z,51.4
2017-09-09T01:43:59.249Z,52
2017-09-09T01:45:00.690Z,51.9
2017-09-09T01:46:02.464Z,51.7
2017-09-09T01:47:03.923Z,51.7
2017-09-09T01:48:05.361Z,51.6
2017-09-09T01:49:06.823Z,51.6
2017-09-09T01:50:08.953Z,51.5
2017-09-09T01:51:10.390Z,51.8
2017-09-09T01:52:12.520Z,51.6
2017-09-09T01:53:14.649Z,52
2017-09-09T01:54:16.447Z,51.8
2017-09-09T01:55:18.573Z,51.8
2017-09-09T01:56:20.033Z,51.7
2017-09-09T01:57:21.808Z,51.6
2017-09-09T01:58:23.603Z,51.9
2017-09-09T01:59:25.048Z,51.9
2017-09-09T02:00:27.176Z,51.7
2017-09-09T02:01:28.615Z,51.8
2017-09-09T02:02:30.742Z,51.9
2017-09-09T02:03:32.538Z,51.9
2017-09-09T02:04:34.664Z,51.7
2017-09-09T02:05:36.454Z,52
2017-09-09T02:06:37.561Z,52.3
2017-09-09T02:07:39.688Z,51.9
2017-09-09T02:08:41.460Z,52
2017-09-09T02:09:43.229Z,52
2017-09-09T02:10:44.688Z,51.6
2017-09-09T02:11:46.818Z,52.1
2017-09-09T02:12:48.281Z,52
2017-09-09T02:13:50.412Z,51.8
2017-09-09T02:14:51.869Z,52
2017-09-09T02:15:52.993Z,51.9
2017-09-09T02:16:55.120Z,52
2017-09-09T02:17:56.925Z,52.4
2017-09-09T02:18:58.695Z,51.7
2017-09-09T02:20:00.504Z,52.2
2017-09-09T02:21:02.299Z,51.7
2017-09-09T02:22:04.094Z,51.7
2017-09-09T02:23:05.864Z,52.1
2017-09-09T02:24:07.334Z,52
2017-09-09T02:25:08.459Z,52.3
2017-09-09T02:26:10.251Z,52
2017-09-09T02:27:11.709Z,51.8
2017-09-09T02:28:13.167Z,52
2017-09-09T02:29:15.318Z,51.8
2017-09-09T02:30:17.432Z,51.7
2017-09-09T02:31:19.227Z,51.7
2017-09-09T02:32:21.354Z,51.8
2017-09-09T02:33:22.814Z,51.8
2017-09-09T02:34:24.609Z,52
2017-09-09T02:35:26.404Z,52
2017-09-09T02:36:27.860Z,52.3
2017-09-09T02:37:29.311Z,52.3
2017-09-09T02:38:31.428Z,52.2
2017-09-09T02:39:33.221Z,51.9
2017-09-09T02:40:34.656Z,51.9
2017-09-09T02:41:36.468Z,51.7
2017-09-09T02:42:37.570Z,51.7
2017-09-09T02:43:39.721Z,51.7
2017-09-09T02:44:41.167Z,52.3
2017-09-09T02:45:42.284Z,52.2
2017-09-09T02:46:44.417Z,51.9
2017-09-09T02:47:46.210Z,52
2017-09-09T02:48:48.340Z,52.2
2017-09-09T02:49:49.112Z,51.7
2017-09-09T02:50:50.575Z,51.7
2017-09-09T02:51:52.013Z,51.9
2017-09-09T02:52:54.144Z,51.8
2017-09-09T02:53:55.939Z,51.8
2017-09-09T02:54:58.065Z,52.2
2017-09-09T02:55:59.859Z,51.8
2017-09-09T02:57:01.653Z,52
2017-09-09T02:58:03.446Z,52.4
2017-09-09T02:59:05.240Z,51.9
2017-09-09T03:00:07.021Z,52
2017-09-09T03:01:08.453Z,51.8
2017-09-09T03:02:09.891Z,52.1
2017-09-09T03:03:11.366Z,52.1
2017-09-09T03:04:13.160Z,51.8
2017-09-09T03:05:14.595Z,52.2
2017-09-09T03:06:16.369Z,51.9
2017-09-09T03:07:18.495Z,52.1
2017-09-09T03:08:20.314Z,52.4
2017-09-09T03:09:21.745Z,52.4
2017-09-09T03:10:23.571Z,52.2
2017-09-09T03:11:25.698Z,51.9
2017-09-09T03:12:27.473Z,52.4
2017-09-09T03:13:29.267Z,52
2017-09-09T03:14:30.702Z,52.5
2017-09-09T03:15:32.161Z,52.1
2017-09-09T03:16:33.952Z,52.1
2017-09-09T03:17:36.078Z,52
2017-09-09T03:18:37.539Z,52
2017-09-09T03:19:38.998Z,51.9
2017-09-09T03:20:41.123Z,52
2017-09-09T03:21:42.897Z,52
2017-09-09T03:22:45.027Z,52
2017-09-09T03:23:47.156Z,52
2017-09-09T03:24:48.593Z,52
2017-09-09T03:25:50.031Z,52.5
2017-09-09T03:26:51.469Z,52.1
2017-09-09T03:27:53.602Z,52
2017-09-09T03:28:55.396Z,52.4
2017-09-09T03:29:57.189Z,52
2017-09-09T03:30:58.963Z,52
2017-09-09T03:32:00.403Z,52
2017-09-09T03:33:02.531Z,52.1
2017-09-09T03:34:04.658Z,52.1
2017-09-09T03:35:06.121Z,52.4
2017-09-09T03:36:07.915Z,52.1
2017-09-09T03:37:10.079Z,52.4
2017-09-09T03:38:12.193Z,52.6
2017-09-09T03:39:13.989Z,52
2017-09-09T03:40:15.782Z,52
2017-09-09T03:41:17.241Z,51.9
2017-09-09T03:42:18.677Z,51.8
2017-09-09T03:43:20.138Z,52
2017-09-09T03:44:22.267Z,52
2017-09-09T03:45:23.730Z,52.4
2017-09-09T03:46:25.543Z,52
2017-09-09T03:47:27.336Z,52
2017-09-09T03:48:29.130Z,52.6
2017-09-09T03:49:30.569Z,52
2017-09-09T03:50:32.011Z,52
2017-09-09T03:51:33.803Z,51.9
2017-09-09T03:52:35.242Z,52.6
2017-09-09T03:53:37.390Z,52
2017-09-09T03:54:38.493Z,52
2017-09-09T03:55:40.265Z,52.6
2017-09-09T03:56:42.057Z,52
2017-09-09T03:57:43.518Z,52
2017-09-09T03:58:45.310Z,52
2017-09-09T03:59:47.439Z,52.1
2017-09-09T04:00:48.897Z,52
2017-09-09T04:01:50.667Z,52
2017-09-09T04:02:52.461Z,52.5
2017-09-09T04:03:54.256Z,52.5
2017-09-09T04:04:56.050Z,52.5
2017-09-09T04:05:57.824Z,52
2017-09-09T04:06:59.952Z,52
2017-09-09T04:08:01.078Z,52
2017-09-09T04:09:02.528Z,52
2017-09-09T04:10:04.655Z,52.5
2017-09-09T04:11:06.426Z,52
2017-09-09T04:12:07.531Z,52.1
2017-09-09T04:13:09.703Z,52.5
2017-09-09T04:14:11.499Z,52
2017-09-09T04:15:12.940Z,52.1
2017-09-09T04:16:14.072Z,52.2
2017-09-09T04:17:15.533Z,52
2017-09-09T04:18:17.326Z,52.1
2017-09-09T04:19:19.119Z,52.6
2017-09-09T04:20:20.934Z,52
2017-09-09T04:21:22.383Z,52.4
2017-09-09T04:22:24.175Z,52.7
2017-09-09T04:23:26.311Z,52
2017-09-09T04:24:27.763Z,52.6
2017-09-09T04:25:29.888Z,52
2017-09-09T04:26:32.018Z,52.8
2017-09-09T04:27:34.145Z,52.5
2017-09-09T04:28:35.604Z,52.1
2017-09-09T04:29:37.044Z,52.6
2017-09-09T04:30:38.845Z,52.1
2017-09-09T04:31:40.969Z,52.1
2017-09-09T04:32:42.409Z,52.1
2017-09-09T04:33:44.209Z,52.1
2017-09-09T04:34:46.003Z,52.1
2017-09-09T04:35:47.795Z,52.3
2017-09-09T04:36:49.923Z,52
2017-09-09T04:37:52.053Z,52.1
2017-09-09T04:38:54.180Z,52.7
2017-09-09T04:39:55.972Z,52.4
2017-09-09T04:40:57.768Z,52.5
2017-09-09T04:41:59.564Z,52.1
2017-09-09T04:43:01.696Z,52.5
2017-09-09T04:44:03.167Z,52.1
2017-09-09T04:45:04.275Z,52.1
2017-09-09T04:46:05.719Z,52.4
2017-09-09T04:47:07.512Z,52.5
2017-09-09T04:48:09.285Z,52.5
2017-09-09T04:49:11.438Z,52.6
2017-09-09T04:50:13.232Z,52.6
2017-09-09T04:51:15.031Z,52.7
2017-09-09T04:52:17.161Z,52.1
2017-09-09T04:53:18.960Z,52.2
2017-09-09T04:54:20.756Z,52.2
2017-09-09T04:55:22.549Z,52.1
2017-09-09T04:56:24.677Z,52.2
2017-09-09T04:57:25.778Z,52.2
2017-09-09T04:58:27.905Z,52.3
2017-09-09T04:59:29.346Z,52.7
2017-09-09T05:00:30.803Z,52.6
2017-09-09T05:01:32.244Z,52.6
2017-09-09T05:02:34.376Z,52
2017-09-09T05:03:36.173Z,52.6
2017-09-09T05:04:37.946Z,52.6
2017-09-09T05:05:39.726Z,52
2017-09-09T05:06:41.854Z,52.2
2017-09-09T05:07:43.624Z,52.8
2017-09-09T05:08:45.424Z,52.2
2017-09-09T05:09:46.881Z,52
2017-09-09T05:10:48.339Z,52
2017-09-09T05:11:50.471Z,52.6
2017-09-09T05:12:51.584Z,51.9
2017-09-09T05:13:53.376Z,52
2017-09-09T05:14:55.172Z,52
2017-09-09T05:15:56.275Z,52.7
2017-09-09T05:16:58.069Z,52.6
2017-09-09T05:17:59.172Z,52
2017-09-09T05:19:00.944Z,51.9
2017-09-09T05:20:02.739Z,52
2017-09-09T05:21:04.174Z,52
2017-09-09T05:22:06.301Z,52
2017-09-09T05:23:08.093Z,52
2017-09-09T05:24:10.223Z,52.6
2017-09-09T05:25:11.997Z,51.9
2017-09-09T05:26:13.790Z,52.1
2017-09-09T05:27:15.566Z,52.6
2017-09-09T05:28:17.698Z,52.2
2017-09-09T05:29:19.828Z,51.9
2017-09-09T05:30:20.935Z,52
2017-09-09T05:31:22.710Z,52.1
2017-09-09T05:32:24.503Z,52.1
2017-09-09T05:33:26.631Z,52.1
2017-09-09T05:34:28.411Z,52.1
2017-09-09T05:35:29.846Z,51.9
2017-09-09T05:36:31.973Z,52.1
2017-09-09T05:37:34.105Z,52.1
2017-09-09T05:38:35.574Z,52.4
2017-09-09T05:39:37.013Z,52.8
2017-09-09T05:40:38.807Z,52.3
2017-09-09T05:41:40.603Z,52.5
2017-09-09T05:42:42.398Z,52.1
2017-09-09T05:43:44.526Z,52.1
2017-09-09T05:44:46.299Z,52
2017-09-09T05:45:48.431Z,52.1
2017-09-09T05:46:50.557Z,52.1
2017-09-09T05:47:52.697Z,52.1
2017-09-09T05:48:54.468Z,52.2
2017-09-09T05:49:56.598Z,51.9
2017-09-09T05:50:58.724Z,52.1
2017-09-09T05:52:00.520Z,52.1
2017-09-09T05:53:01.955Z,52.1
2017-09-09T05:54:04.083Z,52.1
2017-09-09T05:55:05.550Z,52.1
2017-09-09T05:56:06.992Z,52.2
2017-09-09T05:57:08.785Z,52.1
2017-09-09T05:58:10.586Z,51.9
2017-09-09T05:59:12.382Z,51.9
2017-09-09T06:00:14.178Z,52.3
2017-09-09T06:01:16.307Z,51.9
2017-09-09T06:02:18.107Z,51.9
2017-09-09T06:03:19.922Z,52.2
2017-09-09T06:04:21.361Z,52.7
2017-09-09T06:05:23.506Z,52.1
2017-09-09T06:06:25.636Z,52.8
2017-09-09T06:07:27.409Z,52.4
2017-09-09T06:08:29.206Z,52.8
2017-09-09T06:09:31.003Z,52.4
2017-09-09T06:10:32.779Z,52.1
2017-09-09T06:11:34.216Z,52.1
2017-09-09T06:12:36.014Z,52.6
2017-09-09T06:13:37.790Z,52.2
2017-09-09T06:14:39.921Z,52.1
2017-09-09T06:15:41.716Z,52.7
2017-09-09T06:16:43.493Z,52.1
2017-09-09T06:17:44.598Z,52.4
2017-09-09T06:18:46.393Z,52.3
2017-09-09T06:19:48.188Z,52.6
2017-09-09T06:20:49.317Z,53
2017-09-09T06:21:51.118Z,52.6
2017-09-09T06:22:52.897Z,52.6
2017-09-09T06:23:53.670Z,52.7
2017-09-09T06:24:55.458Z,52.3
2017-09-09T06:25:57.253Z,52.6
2017-09-09T06:26:58.714Z,52.6
2017-09-09T06:27:59.850Z,52.6
2017-09-09T06:29:01.965Z,52.4
2017-09-09T06:30:04.105Z,52.4
2017-09-09T06:31:06.236Z,52.6
2017-09-09T06:32:08.367Z,52.4
2017-09-09T06:33:10.495Z,52.8
2017-09-09T06:34:12.293Z,52.8
2017-09-09T06:35:14.066Z,52.4
2017-09-09T06:36:15.529Z,52.9
2017-09-09T06:37:17.654Z,52.9
2017-09-09T06:38:19.451Z,52.7
2017-09-09T06:39:21.247Z,52.4
2017-09-09T06:40:23.376Z,52.8
2017-09-09T06:41:24.815Z,52.8
2017-09-09T06:42:26.609Z,53.2
2017-09-09T06:43:27.379Z,53
2017-09-09T06:44:29.565Z,53.1
2017-09-09T06:45:31.695Z,52.5
2017-09-09T06:46:33.156Z,52.9
2017-09-09T06:47:35.292Z,52.8
2017-09-09T06:48:36.766Z,52.5
2017-09-09T06:49:38.548Z,52.5
2017-09-09T06:50:40.678Z,52.6
2017-09-09T06:51:42.453Z,52.7
2017-09-09T06:52:43.895Z,52.6
2017-09-09T06:53:45.020Z,52.4
2017-09-09T06:54:46.475Z,52.9
2017-09-09T06:55:48.608Z,52.5
2017-09-09T06:56:50.381Z,52.6
2017-09-09T06:57:51.844Z,52.9
2017-09-09T06:58:53.973Z,53
2017-09-09T06:59:55.515Z,52.6
2017-09-09T07:00:57.650Z,53
2017-09-09T07:01:59.781Z,52.7
2017-09-09T07:03:01.927Z,53.2
2017-09-09T07:04:03.387Z,52.8
2017-09-09T07:05:05.519Z,52.6
2017-09-09T07:06:07.314Z,52.5
2017-09-09T07:07:09.442Z,52.5
2017-09-09T07:08:10.910Z,53
2017-09-09T07:09:12.030Z,53
2017-09-09T07:10:13.493Z,52.5
2017-09-09T07:11:14.937Z,52.8
2017-09-09T07:12:16.727Z,52.8
2017-09-09T07:13:18.522Z,52.5
2017-09-09T07:14:20.652Z,52.9
2017-09-09T07:15:22.091Z,53.2
2017-09-09T07:16:23.552Z,52.4
2017-09-09T07:17:25.688Z,52.7
2017-09-09T07:18:27.482Z,52.6
2017-09-09T07:19:29.256Z,52.7
2017-09-09T07:20:30.720Z,52.7
2017-09-09T07:21:32.184Z,52.8
2017-09-09T07:22:34.312Z,53.2
2017-09-09T07:23:36.443Z,52.8
2017-09-09T07:24:37.882Z,52.5
2017-09-09T07:25:39.676Z,52.8
2017-09-09T07:26:41.471Z,53.1
2017-09-09T07:27:43.244Z,52.6
2017-09-09T07:28:45.038Z,52.6
2017-09-09T07:29:47.172Z,52.6
2017-09-09T07:30:48.631Z,52.5
2017-09-09T07:31:49.757Z,52.5
2017-09-09T07:32:51.552Z,53.1
2017-09-09T07:33:52.675Z,52.6
2017-09-09T07:34:54.469Z,52.5
2017-09-09T07:35:56.262Z,52.8
2017-09-09T07:36:58.063Z,52.8
2017-09-09T07:37:59.525Z,52.8
2017-09-09T07:39:01.320Z,52.5
2017-09-09T07:40:02.779Z,52.6
2017-09-09T07:41:04.242Z,52.6
2017-09-09T07:42:06.370Z,52.8
2017-09-09T07:43:08.169Z,52.4
2017-09-09T07:44:09.965Z,52.7
2017-09-09T07:45:11.428Z,53.1
2017-09-09T07:46:13.227Z,52.8
2017-09-09T07:47:14.683Z,52.8
2017-09-09T07:48:16.121Z,52.9
2017-09-09T07:49:17.231Z,52.8
2017-09-09T07:50:19.362Z,52.7
2017-09-09T07:51:20.466Z,53.1
2017-09-09T07:52:21.906Z,52.7
2017-09-09T07:53:23.680Z,52.8
2017-09-09T07:54:24.788Z,52.5
2017-09-09T07:55:26.914Z,52.8
2017-09-09T07:56:29.045Z,52.6
2017-09-09T07:57:30.840Z,52.7
2017-09-09T07:58:32.635Z,53.2
2017-09-09T07:59:34.096Z,53.1
2017-09-09T08:00:36.227Z,52.5
2017-09-09T08:01:37.689Z,52.8
2017-09-09T08:02:39.466Z,52.9
2017-09-09T08:03:41.260Z,52.5
2017-09-09T08:04:43.037Z,52.4
2017-09-09T08:05:44.496Z,52.1
2017-09-09T08:06:46.627Z,52.4
2017-09-09T08:07:47.732Z,52.5
2017-09-09T08:08:49.172Z,52.2
2017-09-09T08:09:50.971Z,52.5
2017-09-09T08:10:52.761Z,52.2
2017-09-09T08:11:54.224Z,52.2
2017-09-09T08:12:55.335Z,52.4
2017-09-09T08:13:56.106Z,52.2
2017-09-09T08:14:57.909Z,52.7
2017-09-09T08:15:59.700Z,52.3
2017-09-09T08:17:01.495Z,52.3
2017-09-09T08:18:02.931Z,52.3
2017-09-09T08:19:04.390Z,52.9
2017-09-09T08:20:05.851Z,52.5
2017-09-09T08:21:07.645Z,52.4
2017-09-09T08:22:09.421Z,52.7
2017-09-09T08:23:11.219Z,52.9
2017-09-09T08:24:13.348Z,52.4
2017-09-09T08:25:14.788Z,52.6
2017-09-09T08:26:16.582Z,52.6
2017-09-09T08:27:18.360Z,52.9
2017-09-09T08:28:20.515Z,52.3
2017-09-09T08:29:21.950Z,52.5
2017-09-09T08:30:24.078Z,52.4
2017-09-09T08:31:25.515Z,52.4
2017-09-09T08:32:26.619Z,52.7
2017-09-09T08:33:28.415Z,52.1
2017-09-09T08:34:30.209Z,52.2
2017-09-09T08:35:30.982Z,52
2017-09-09T08:36:32.776Z,52.2
2017-09-09T08:37:35.005Z,52.7
2017-09-09T08:38:36.783Z,52.7
2017-09-09T08:39:38.906Z,52
2017-09-09T08:40:41.037Z,52
2017-09-09T08:41:43.167Z,52.1
2017-09-09T08:42:45.345Z,52.4
2017-09-09T08:43:47.142Z,52
2017-09-09T08:44:48.935Z,51.9
2017-09-09T08:45:51.066Z,52.2
2017-09-09T08:46:52.865Z,51.7
2017-09-09T08:47:54.325Z,51.9
2017-09-09T08:48:55.783Z,51.7
2017-09-09T08:49:57.914Z,52
2017-09-09T08:51:00.044Z,52
2017-09-09T08:52:00.816Z,52.1
2017-09-09T08:53:02.947Z,51.7
2017-09-09T08:54:04.418Z,52.4
2017-09-09T08:55:06.544Z,52.1
2017-09-09T08:56:08.343Z,52
2017-09-09T08:57:10.141Z,51.6
2017-09-09T08:58:12.270Z,51.9
2017-09-09T08:59:14.046Z,51.8
2017-09-09T09:00:15.488Z,51.7
2017-09-09T09:01:16.931Z,51.6
2017-09-09T09:02:19.063Z,52.1
2017-09-09T09:03:20.501Z,51.9
2017-09-09T09:04:22.633Z,52
2017-09-09T09:05:23.758Z,51.8
2017-09-09T09:06:25.198Z,51.8
2017-09-09T09:07:26.636Z,51.8
2017-09-09T09:08:28.075Z,51.7
2017-09-09T09:09:29.872Z,51.8
2017-09-09T09:10:31.337Z,51.8
2017-09-09T09:11:32.798Z,52.1
2017-09-09T09:12:34.928Z,52.4
2017-09-09T09:13:36.705Z,51.7
2017-09-09T09:14:38.832Z,51.9
2017-09-09T09:15:40.622Z,52
2017-09-09T09:16:42.082Z,52.1
2017-09-09T09:17:43.212Z,51.9
2017-09-09T09:18:45.342Z,52
2017-09-09T09:19:46.801Z,52.6
2017-09-09T09:20:48.932Z,51.7
2017-09-09T09:21:50.391Z,52.1
2017-09-09T09:22:52.186Z,51.8
2017-09-09T09:23:53.986Z,51.7
2017-09-09T09:24:55.422Z,51.7
2017-09-09T09:25:56.860Z,51.7
2017-09-09T09:26:58.657Z,51.7
2017-09-09T09:28:00.787Z,51.6
2017-09-09T09:29:02.227Z,51.8
2017-09-09T09:30:04.357Z,52.1
2017-09-09T09:31:06.154Z,51.7
2017-09-09T09:32:08.283Z,51.7
2017-09-09T09:33:10.083Z,52
2017-09-09T09:34:11.857Z,52.1
2017-09-09T09:35:13.656Z,51.7
2017-09-09T09:36:15.451Z,51.8
2017-09-09T09:37:17.581Z,51.7
2017-09-09T09:38:19.023Z,51.8
2017-09-09T09:39:20.818Z,52.4
2017-09-09T09:40:22.605Z,51.8
2017-09-09T09:41:24.402Z,51.8
2017-09-09T09:42:25.509Z,51.8
2017-09-09T09:43:27.641Z,51.6
2017-09-09T09:44:29.078Z,51.6
2017-09-09T09:45:31.207Z,51.9
2017-09-09T09:46:32.643Z,52
2017-09-09T09:47:34.775Z,52.3
2017-09-09T09:48:36.903Z,51.9
2017-09-09T09:49:38.390Z,52.2
2017-09-09T09:50:40.190Z,51.9
2017-09-09T09:51:41.294Z,51.9
2017-09-09T09:52:43.088Z,51.6
2017-09-09T09:53:44.865Z,51.9
2017-09-09T09:54:46.402Z,51.7
2017-09-09T09:55:48.195Z,51.9
2017-09-09T09:56:49.974Z,51.9
2017-09-09T09:57:51.769Z,51.9
2017-09-09T09:58:53.570Z,51.4
2017-09-09T09:59:55.699Z,51.6
2017-09-09T10:00:57.140Z,51.6
2017-09-09T10:01:58.936Z,51.6
2017-09-09T10:03:00.712Z,51.6
2017-09-09T10:04:02.867Z,51.4
2017-09-09T10:05:04.667Z,51.5
2017-09-09T10:06:06.794Z,51.5
2017-09-09T10:07:08.237Z,51.8
2017-09-09T10:08:09.697Z,51.7
2017-09-09T10:09:11.832Z,51.3
2017-09-09T10:10:13.959Z,51.7
2017-09-09T10:11:15.758Z,51.7
2017-09-09T10:12:17.540Z,51.8
2017-09-09T10:13:18.668Z,51.4
2017-09-09T10:14:20.473Z,51.3
2017-09-09T10:15:22.349Z,51.3
2017-09-09T10:16:23.807Z,51.4
2017-09-09T10:17:25.605Z,51.7
2017-09-09T10:18:27.386Z,51.3
2017-09-09T10:19:29.519Z,51.3
2017-09-09T10:20:31.385Z,51.3
2017-09-09T10:21:33.187Z,51.3
2017-09-09T10:22:35.318Z,51.1
2017-09-09T10:23:37.095Z,51.4
2017-09-09T10:24:38.536Z,51.6
2017-09-09T10:25:40.310Z,51.3
2017-09-09T10:26:42.090Z,51.2
2017-09-09T10:27:43.194Z,51
2017-09-09T10:28:45.326Z,51.3
2017-09-09T10:29:47.123Z,51.5
2017-09-09T10:30:48.920Z,51.4
2017-09-09T10:31:50.360Z,51
2017-09-09T10:32:51.826Z,51
2017-09-09T10:33:53.618Z,50.9
2017-09-09T10:34:55.753Z,51.4
2017-09-09T10:35:57.563Z,51.1
2017-09-09T10:36:59.355Z,51.1
2017-09-09T10:38:01.152Z,51
2017-09-09T10:39:02.930Z,51
2017-09-09T10:40:04.743Z,51.3
2017-09-09T10:41:06.178Z,51.4
2017-09-09T10:42:07.978Z,51.4
2017-09-09T10:43:09.773Z,51.3
2017-09-09T10:44:11.214Z,51
2017-09-09T10:45:13.011Z,51
2017-09-09T10:46:14.783Z,51
2017-09-09T10:47:16.916Z,50.9
2017-09-09T10:48:18.359Z,51
2017-09-09T10:49:19.819Z,51
2017-09-09T10:50:21.617Z,51
2017-09-09T10:51:23.079Z,51.3
2017-09-09T10:52:24.851Z,51.4
2017-09-09T10:53:26.982Z,51.3
2017-09-09T10:54:29.112Z,51.1
2017-09-09T10:55:30.553Z,51.2
2017-09-09T10:56:32.325Z,51.2
2017-09-09T10:57:34.456Z,51.3
2017-09-09T10:58:36.256Z,51.5
2017-09-09T10:59:37.719Z,51.5
2017-09-09T11:00:39.846Z,51
2017-09-09T11:01:41.980Z,51.1
2017-09-09T11:02:43.755Z,51.6
2017-09-09T11:03:45.892Z,51
2017-09-09T11:04:48.021Z,51.2
2017-09-09T11:05:49.478Z,51.4
2017-09-09T11:06:51.607Z,51
2017-09-09T11:07:53.739Z,51
2017-09-09T11:08:54.511Z,51.5
2017-09-09T11:09:55.954Z,51
2017-09-09T11:10:57.416Z,51
2017-09-09T11:11:59.259Z,50.9
2017-09-09T11:13:01.034Z,51.5
2017-09-09T11:14:02.498Z,51.5
2017-09-09T11:15:04.295Z,51.5
2017-09-09T11:16:06.097Z,50.8
2017-09-09T11:17:08.232Z,51.4
2017-09-09T11:18:10.365Z,51
2017-09-09T11:19:11.468Z,51.4
2017-09-09T11:20:13.262Z,51.5
2017-09-09T11:21:15.061Z,51.4
2017-09-09T11:22:16.270Z,50.9
2017-09-09T11:23:18.063Z,51
2017-09-09T11:24:19.864Z,51.2
2017-09-09T11:25:21.320Z,51.2
2017-09-09T11:26:22.782Z,51.3
2017-09-09T11:27:24.579Z,51.2
2017-09-09T11:28:26.048Z,51.3
2017-09-09T11:29:28.177Z,51.5
2017-09-09T11:30:29.638Z,51.3
2017-09-09T11:31:30.413Z,51.2
2017-09-09T11:32:31.871Z,51.1
2017-09-09T11:33:33.676Z,51.5
2017-09-09T11:34:35.471Z,51.3
2017-09-09T11:35:36.936Z,51.1
2017-09-09T11:36:39.065Z,51.3
2017-09-09T11:37:40.504Z,51.2
2017-09-09T11:38:42.632Z,50.9
2017-09-09T11:39:44.071Z,51
2017-09-09T11:40:45.842Z,51.1
2017-09-09T11:41:47.986Z,51.2
2017-09-09T11:42:49.425Z,50.8
2017-09-09T11:43:50.891Z,50.9
2017-09-09T11:44:52.355Z,50.9
2017-09-09T11:45:53.797Z,50.9
2017-09-09T11:46:55.928Z,50.8
2017-09-09T11:47:57.389Z,50.8
2017-09-09T11:48:59.519Z,50.9
2017-09-09T11:50:01.310Z,51
2017-09-09T11:51:03.108Z,51.1
2017-09-09T11:52:04.571Z,51
2017-09-09T11:53:06.015Z,50.7
2017-09-09T11:54:07.810Z,50.8
2017-09-09T11:55:09.605Z,51.5
2017-09-09T11:56:10.732Z,50.7
2017-09-09T11:57:12.528Z,50.8
2017-09-09T11:58:14.401Z,50.8
2017-09-09T11:59:15.866Z,51.1
2017-09-09T12:00:17.996Z,50.8
2017-09-09T12:01:19.793Z,50.7
2017-09-09T12:02:21.921Z,51.2
2017-09-09T12:03:23.029Z,50.8
2017-09-09T12:04:25.159Z,50.8
2017-09-09T12:05:27.291Z,50.8
2017-09-09T12:06:29.069Z,50.7
2017-09-09T12:07:30.178Z,50.8
2017-09-09T12:08:32.410Z,51.1
2017-09-09T12:09:34.186Z,51.2
2017-09-09T12:10:35.958Z,50.9
2017-09-09T12:11:37.070Z,50.9
2017-09-09T12:12:39.201Z,51.1
2017-09-09T12:13:40.643Z,50.9
2017-09-09T12:14:42.438Z,51.1
2017-09-09T12:15:43.906Z,51.2
2017-09-09T12:16:46.041Z,51.1
2017-09-09T12:17:47.144Z,51
2017-09-09T12:18:48.585Z,51.1
2017-09-09T12:19:50.380Z,50.9
2017-09-09T12:20:51.824Z,51.4
2017-09-09T12:21:53.617Z,50.9
2017-09-09T12:22:55.056Z,50.9
2017-09-09T12:23:57.191Z,51.2
2017-09-09T12:24:58.657Z,51.2
2017-09-09T12:26:00.455Z,51.1
2017-09-09T12:27:01.894Z,50.8
2017-09-09T12:28:03.340Z,50.8
2017-09-09T12:29:05.471Z,51
2017-09-09T12:30:06.932Z,50.7
2017-09-09T12:31:08.370Z,51
2017-09-09T12:32:10.166Z,51.1
2017-09-09T12:33:11.964Z,50.9
2017-09-09T12:34:14.109Z,50.8
2017-09-09T12:35:15.884Z,50.8
2017-09-09T12:36:17.683Z,50.7
2017-09-09T12:37:19.477Z,51.1
2017-09-09T12:38:20.916Z,51
2017-09-09T12:39:22.379Z,50.7
2017-09-09T12:40:23.840Z,51
2017-09-09T12:41:25.641Z,50.8
2017-09-09T12:42:27.098Z,50.8
2017-09-09T12:43:28.875Z,50.8
2017-09-09T12:44:30.671Z,50.6
2017-09-09T12:45:32.446Z,51.1
2017-09-09T12:46:33.572Z,50.7
2017-09-09T12:47:35.706Z,50.8
2017-09-09T12:48:37.144Z,50.7
2017-09-09T12:49:38.943Z,50.6
2017-09-09T12:50:40.383Z,50.5
2017-09-09T12:51:41.828Z,50.6
2017-09-09T12:52:43.628Z,50.6
2017-09-09T12:53:45.755Z,50.6
2017-09-09T12:54:47.219Z,51.2
2017-09-09T12:55:49.349Z,50.6
2017-09-09T12:56:51.149Z,50.9
2017-09-09T12:57:53.276Z,50.8
2017-09-09T12:58:55.415Z,50.9
2017-09-09T12:59:57.190Z,50.8
2017-09-09T13:00:58.969Z,50.7
2017-09-09T13:02:01.098Z,51
2017-09-09T13:03:02.878Z,50.7
2017-09-09T13:04:03.981Z,50.7
2017-09-09T13:05:05.780Z,50.7
2017-09-09T13:06:07.241Z,50.7
2017-09-09T13:07:09.016Z,50.7
2017-09-09T13:08:11.149Z,50.7
2017-09-09T13:09:13.279Z,50.9
2017-09-09T13:10:15.082Z,50.7
2017-09-09T13:11:15.850Z,51
2017-09-09T13:12:17.289Z,50.9
2017-09-09T13:13:19.085Z,51.1
2017-09-09T13:14:20.222Z,50.8
2017-09-09T13:15:22.046Z,51.2
2017-09-09T13:16:23.488Z,50.7
2017-09-09T13:17:25.286Z,50.7
2017-09-09T13:18:27.419Z,50.7
2017-09-09T13:19:28.861Z,50.6
2017-09-09T13:20:30.656Z,51
2017-09-09T13:21:32.103Z,50.5
2017-09-09T13:22:34.232Z,50.7
2017-09-09T13:23:36.365Z,50.8
2017-09-09T13:24:37.498Z,50.8
2017-09-09T13:25:39.292Z,50.8
2017-09-09T13:26:40.736Z,50.6
2017-09-09T13:27:42.199Z,51.2
2017-09-09T13:28:43.994Z,50.7
2017-09-09T13:29:46.128Z,51.2
2017-09-09T13:30:48.257Z,50.7
2017-09-09T13:31:50.054Z,51.2
2017-09-09T13:32:51.851Z,50.7
2017-09-09T13:33:53.644Z,51.2
2017-09-09T13:34:54.748Z,50.8
2017-09-09T13:35:56.576Z,50.7
2017-09-09T13:36:58.708Z,50.8
2017-09-09T13:38:00.491Z,50.7
2017-09-09T13:39:01.955Z,50.7
2017-09-09T13:40:04.087Z,50.6
2017-09-09T13:41:05.897Z,50.5
2017-09-09T13:42:08.021Z,50.4
2017-09-09T13:43:09.485Z,50.4
2017-09-09T13:44:10.927Z,50.4
2017-09-09T13:45:12.728Z,50.3
2017-09-09T13:46:14.529Z,50.3
2017-09-09T13:47:16.324Z,51.1
2017-09-09T13:48:18.107Z,50.5
2017-09-09T13:49:19.902Z,51.2